createdAt,value
2019-05-15T00:01:19.221Z,96795.17
2019-05-15T00:03:54.262Z,96791.16
2019-05-15T00:06:21.709Z,96788.80
2019-05-15T00:08:48.945Z,96780.80
2019-05-15T00:11:16.117Z,96779.14
2019-05-15T00:13:44.061Z,96780.99
2019-05-15T00:16:11.531Z,96781.19
2019-05-15T00:18:39.207Z,96776.98
2019-05-15T00:21:14.077Z,96779.23
2019-05-15T00:23:41.459Z,96768.05
2019-05-15T00:26:09.447Z,96763.02
2019-05-15T00:28:43.904Z,96763.09
2019-05-15T00:31:10.993Z,96763.33
2019-05-15T00:33:39.353Z,96757.56
2019-05-15T00:36:13.192Z,96749.98
2019-05-15T00:38:40.251Z,96760.77
2019-05-15T00:41:09.377Z,96751.94
2019-05-15T00:43:42.283Z,96752.76
2019-05-15T00:46:09.437Z,96747.11
2019-05-15T00:48:36.555Z,96749.16
2019-05-15T00:51:03.620Z,96750.17
2019-05-15T00:53:30.710Z,96742.56
2019-05-15T00:55:58.149Z,96737.97
2019-05-15T00:58:36.648Z,96738.87
2019-05-15T01:01:03.698Z,96740.41
2019-05-15T01:03:30.744Z,96739.47
2019-05-15T01:05:58.603Z,96732.80
2019-05-15T01:08:33.169Z,96731.77
2019-05-15T01:11:00.233Z,96727.14
2019-05-15T01:13:28.202Z,96723.66
2019-05-15T01:16:06.191Z,96727.55
2019-05-15T01:18:33.264Z,96720.56
2019-05-15T01:21:00.338Z,96718.41
2019-05-15T01:23:28.204Z,96713.48
2019-05-15T01:26:02.449Z,96711.45
2019-05-15T01:28:29.508Z,96714.63
2019-05-15T01:30:59.035Z,96713.48
2019-05-15T01:33:31.672Z,96705.17
2019-05-15T01:35:59.099Z,96703.84
2019-05-15T01:38:38.904Z,96698.27
2019-05-15T01:41:12.444Z,96697.78
2019-05-15T01:43:39.514Z,96691.31
2019-05-15T01:46:08.412Z,96691.11
2019-05-15T01:48:41.856Z,96691.23
2019-05-15T01:51:09.495Z,96689.36
2019-05-15T01:53:44.030Z,96689.47
2019-05-15T01:56:11.102Z,96687.73
2019-05-15T01:58:38.452Z,96691.11
2019-05-15T02:01:19.139Z,96691.85
2019-05-15T02:03:52.188Z,96683.33
2019-05-15T02:06:19.316Z,96683.13
2019-05-15T02:08:46.409Z,96681.28
2019-05-15T02:11:13.501Z,96679.13
2019-05-15T02:13:40.650Z,96676.97
2019-05-15T02:16:08.393Z,96671.52
2019-05-15T02:18:42.992Z,96669.78
2019-05-15T02:21:10.569Z,96665.58
2019-05-15T02:23:45.105Z,96666.29
2019-05-15T02:26:12.159Z,96661.98
2019-05-15T02:28:39.214Z,96662.69
2019-05-15T02:31:10.011Z,96664.11
2019-05-15T02:33:45.144Z,96663.28
2019-05-15T02:36:12.201Z,96659.88
2019-05-15T02:38:41.133Z,96656.39
2019-05-15T02:41:19.520Z,96661.42
2019-05-15T02:43:53.127Z,96659.26
2019-05-15T02:46:20.221Z,96657.34
2019-05-15T02:48:48.890Z,96653.02
2019-05-15T02:51:26.170Z,96658.05
2019-05-15T02:53:53.231Z,96653.02
2019-05-15T02:56:20.827Z,96653.93
2019-05-15T02:58:56.232Z,96649.61
2019-05-15T03:01:34.849Z,96649.10
2019-05-15T03:04:01.947Z,96648.91
2019-05-15T03:06:29.913Z,96650.55
2019-05-15T03:09:05.048Z,96649.64
2019-05-15T03:11:32.130Z,96651.25
2019-05-15T03:13:59.496Z,96647.56
2019-05-15T03:16:30.117Z,96652.31
2019-05-15T03:19:05.835Z,96645.92
2019-05-15T03:21:32.850Z,96644.58
2019-05-15T03:23:59.961Z,96644.50
2019-05-15T03:26:29.616Z,96639.05
2019-05-15T03:29:05.862Z,96641.10
2019-05-15T03:31:49.380Z,96642.13
2019-05-15T03:34:20.039Z,96640.70
2019-05-15T03:36:45.062Z,96636.38
2019-05-15T03:39:19.162Z,96642.14
2019-05-15T03:41:54.064Z,96641.72
2019-05-15T03:44:21.149Z,96635.55
2019-05-15T03:46:49.201Z,96642.02
2019-05-15T03:49:23.310Z,96635.78
2019-05-15T03:51:50.432Z,96636.89
2019-05-15T03:54:18.905Z,96633.80
2019-05-15T03:56:52.798Z,96626.52
2019-05-15T03:59:19.940Z,96632.87
2019-05-15T04:01:49.697Z,96630.91
2019-05-15T04:04:25.633Z,96635.23
2019-05-15T04:06:52.693Z,96629.48
2019-05-15T04:09:19.762Z,96633.30
2019-05-15T04:11:49.643Z,96632.47
2019-05-15T04:14:21.989Z,96620.77
2019-05-15T04:16:49.789Z,96624.47
2019-05-15T04:19:29.690Z,96627.02
2019-05-15T04:22:03.000Z,96621.80
2019-05-15T04:27:31.546Z,96626.31
2019-05-15T04:29:59.238Z,96622.51
2019-05-15T04:32:39.957Z,96621.17
2019-05-15T04:35:12.674Z,96625.89
2019-05-15T04:37:41.035Z,96621.17
2019-05-15T04:40:14.665Z,96626.00
2019-05-15T04:42:41.791Z,96618.11
2019-05-15T04:45:10.233Z,96619.86
2019-05-15T04:47:49.804Z,96620.80
2019-05-15T04:50:23.006Z,96628.17
2019-05-15T04:52:50.328Z,96623.45
2019-05-15T04:56:09.415Z,96622.74
2019-05-15T04:58:43.238Z,96625.09
2019-05-15T05:01:10.301Z,96622.74
2019-05-15T05:03:39.298Z,96619.77
2019-05-15T05:06:58.697Z,96616.27
2019-05-15T05:09:32.798Z,96620.07
2019-05-15T05:11:59.852Z,96616.59
2019-05-15T05:14:28.495Z,96614.84
2019-05-15T05:17:02.006Z,96616.69
2019-05-15T05:19:29.106Z,96611.97
2019-05-15T05:21:58.444Z,96617.63
2019-05-15T05:24:31.285Z,96614.03
2019-05-15T05:26:58.352Z,96608.26
2019-05-15T05:29:25.440Z,96616.89
2019-05-15T05:32:00.427Z,96616.48
2019-05-15T05:34:28.331Z,96614.44
2019-05-15T05:37:02.416Z,96616.48
2019-05-15T05:39:29.542Z,96622.04
2019-05-15T05:41:58.649Z,96624.21
2019-05-15T05:44:31.505Z,96620.80
2019-05-15T05:46:58.578Z,96629.37
2019-05-15T05:49:25.629Z,96620.60
2019-05-15T05:51:52.708Z,96626.14
2019-05-15T05:54:19.782Z,96628.22
2019-05-15T05:56:48.312Z,96629.66
2019-05-15T05:59:22.412Z,96639.56
2019-05-15T06:01:49.490Z,96632.16
2019-05-15T06:04:18.605Z,96632.98
2019-05-15T06:07:06.044Z,96641.02
2019-05-15T06:09:27.843Z,96639.86
2019-05-15T06:12:02.074Z,96638.59
2019-05-15T06:14:29.296Z,96642.97
2019-05-15T06:16:58.727Z,96645.76
2019-05-15T06:19:31.638Z,96641.45
2019-05-15T06:22:00.986Z,96647.46
2019-05-15T06:25:19.982Z,96651.34
2019-05-15T06:27:55.648Z,96647.04
2019-05-15T06:30:31.262Z,96652.07
2019-05-15T06:33:13.395Z,96656.34
2019-05-15T06:35:45.409Z,96650.48
2019-05-15T06:38:12.480Z,96645.04
2019-05-15T06:40:39.682Z,96647.92
2019-05-15T06:43:08.771Z,96643.05
2019-05-15T06:45:41.968Z,96645.38
2019-05-15T06:48:09.578Z,96646.89
2019-05-15T06:50:49.136Z,96651.09
2019-05-15T06:53:28.850Z,96649.86
2019-05-15T06:56:07.774Z,96655.62
2019-05-15T06:58:44.315Z,96660.53
2019-05-15T07:01:11.409Z,96655.97
2019-05-15T07:03:39.183Z,96660.61
2019-05-15T07:06:13.718Z,96655.50
2019-05-15T07:08:40.811Z,96654.89
2019-05-15T07:11:08.814Z,96654.92
2019-05-15T07:13:43.026Z,96653.06
2019-05-15T07:16:10.119Z,96659.64
2019-05-15T07:18:38.990Z,96656.36
2019-05-15T07:21:20.261Z,96654.41
2019-05-15T07:23:51.213Z,96654.17
2019-05-15T07:26:18.417Z,96649.84
2019-05-15T07:28:45.499Z,96649.23
2019-05-15T07:31:12.577Z,96644.97
2019-05-15T07:33:43.685Z,96650.41
2019-05-15T07:36:15.593Z,96639.26
2019-05-15T07:38:42.706Z,96649.53
2019-05-15T07:41:10.569Z,96648.35
2019-05-15T07:43:49.438Z,96644.64
2019-05-15T07:46:23.682Z,96645.24
2019-05-15T07:48:50.759Z,96646.25
2019-05-15T07:51:18.133Z,96645.28
2019-05-15T07:53:53.273Z,96646.38
2019-05-15T07:56:20.377Z,96647.40
2019-05-15T07:58:52.497Z,96642.14
2019-05-15T08:01:23.020Z,96643.53
2019-05-15T08:03:59.590Z,96644.98
2019-05-15T08:06:25.244Z,96645.80
2019-05-15T08:08:52.308Z,96646.41
2019-05-15T08:11:24.074Z,96650.80
2019-05-15T08:13:54.284Z,96646.10
2019-05-15T08:16:21.356Z,96647.50
2019-05-15T08:18:48.696Z,96650.18
2019-05-15T08:21:15.755Z,96644.83
2019-05-15T08:23:42.837Z,96652.59
2019-05-15T08:26:09.987Z,96648.75
2019-05-15T08:28:38.271Z,96653.77
2019-05-15T08:31:12.404Z,96655.02
2019-05-15T08:33:39.484Z,96644.83
2019-05-15T08:36:08.443Z,96655.33
2019-05-15T08:38:45.374Z,96647.23
2019-05-15T08:41:15.510Z,96648.17
2019-05-15T08:43:48.645Z,96649.48
2019-05-15T08:46:22.668Z,96641.45
2019-05-15T08:48:49.755Z,96645.52
2019-05-15T08:51:19.207Z,96649.27
2019-05-15T08:53:45.863Z,96641.10
2019-05-15T08:56:14.750Z,96636.83
2019-05-15T08:58:48.638Z,96641.47
2019-05-15T09:01:23.274Z,96632.13
2019-05-15T09:03:50.741Z,96636.48
2019-05-15T09:06:22.339Z,96643.15
2019-05-15T09:08:53.590Z,96635.27
2019-05-15T09:11:21.033Z,96636.48
2019-05-15T09:13:53.747Z,96636.61
2019-05-15T09:19:03.979Z,96641.48
2019-05-15T09:21:31.468Z,96642.20
2019-05-15T09:23:59.150Z,96644.25
2019-05-15T09:32:30.766Z,96629.73
2019-05-15T09:34:59.344Z,96627.76
2019-05-15T09:37:33.893Z,96632.13
2019-05-15T09:40:08.975Z,96628.03
2019-05-15T09:42:43.670Z,96630.65
2019-05-15T09:45:51.661Z,96631.74
2019-05-15T09:48:19.932Z,96625.66
2019-05-15T09:50:54.405Z,96629.41
2019-05-15T09:53:21.531Z,96628.70
2019-05-15T09:55:49.416Z,96624.59
2019-05-15T09:58:30.022Z,96615.33
2019-05-15T10:01:02.586Z,96617.59
2019-05-15T10:03:29.773Z,96613.38
2019-05-15T10:05:56.898Z,96617.87
2019-05-15T10:08:24.007Z,96610.26
2019-05-15T10:10:51.037Z,96611.98
2019-05-15T10:13:18.595Z,96612.20
2019-05-15T10:15:58.585Z,96611.98
2019-05-15T10:18:31.938Z,96615.10
2019-05-15T10:20:59.056Z,96613.41
2019-05-15T10:23:28.874Z,96609.80
2019-05-15T10:26:04.996Z,96610.03
2019-05-15T10:28:32.102Z,96604.05
2019-05-15T10:30:59.995Z,96608.86
2019-05-15T10:33:34.315Z,96612.86
2019-05-15T10:36:01.352Z,96612.91
2019-05-15T10:38:28.683Z,96615.28
2019-05-15T10:41:11.230Z,96604.20
2019-05-15T10:43:46.156Z,96601.88
2019-05-15T10:46:19.042Z,96608.19
2019-05-15T10:48:52.719Z,96607.89
2019-05-15T10:51:19.930Z,96604.04
2019-05-15T10:53:48.721Z,96605.20
2019-05-15T10:56:25.629Z,96605.23
2019-05-15T10:58:52.703Z,96599.53
2019-05-15T11:01:19.781Z,96598.71
2019-05-15T11:03:49.275Z,96601.34
2019-05-15T11:06:25.758Z,96608.78
2019-05-15T11:08:52.869Z,96606.29
2019-05-15T11:11:19.929Z,96604.98
2019-05-15T11:13:47.014Z,96607.33
2019-05-15T11:16:14.084Z,96605.28
2019-05-15T11:18:41.310Z,96598.20
2019-05-15T11:21:18.834Z,96597.70
2019-05-15T11:23:51.690Z,96601.39
2019-05-15T11:26:19.500Z,96598.27
2019-05-15T11:28:53.969Z,96592.28
2019-05-15T11:31:24.371Z,96596.46
2019-05-15T11:33:59.924Z,96600.48
2019-05-15T11:36:28.770Z,96594.40
2019-05-15T11:39:08.257Z,96603.03
2019-05-15T11:41:41.721Z,96601.69
2019-05-15T11:44:08.828Z,96600.72
2019-05-15T11:46:38.813Z,96597.14
2019-05-15T11:49:14.936Z,96596.32
2019-05-15T11:51:42.005Z,96590.66
2019-05-15T11:54:09.097Z,96589.67
2019-05-15T11:56:38.929Z,96584.81
2019-05-15T11:59:15.024Z,96586.41
2019-05-15T12:01:42.171Z,96587.01
2019-05-15T12:04:09.686Z,96588.22
2019-05-15T12:06:38.531Z,96586.44
2019-05-15T12:09:12.265Z,96583.59
2019-05-15T12:11:41.010Z,96581.05
2019-05-15T12:14:14.358Z,96586.55
2019-05-15T12:16:41.655Z,96586.55
2019-05-15T12:19:10.383Z,96575.33
2019-05-15T12:21:43.827Z,96573.91
2019-05-15T12:24:10.901Z,96575.89
2019-05-15T12:26:39.500Z,96575.80
2019-05-15T12:29:13.301Z,96564.52
2019-05-15T12:31:40.414Z,96575.60
2019-05-15T12:34:09.106Z,96570.27
2019-05-15T13:00:00.382Z,96555.80
2019-05-15T13:02:28.113Z,96557.98
2019-05-15T13:05:03.461Z,96546.75
2019-05-15T13:07:30.543Z,96547.01
2019-05-15T13:09:58.005Z,96546.27
2019-05-15T13:12:25.111Z,96547.26
2019-05-15T13:14:52.201Z,96553.35
2019-05-15T13:17:19.276Z,96546.31
2019-05-15T13:19:48.313Z,96546.48
2019-05-15T13:22:24.669Z,96539.16
2019-05-15T13:24:58.846Z,96534.23
2019-05-15T13:27:31.958Z,96537.52
2019-05-15T13:29:59.038Z,96540.07
2019-05-15T13:32:28.509Z,96540.21
2019-05-15T13:35:01.165Z,96538.81
2019-05-15T13:37:30.728Z,96537.09
2019-05-15T13:40:07.916Z,96537.47
2019-05-15T13:42:35.033Z,96540.25
2019-05-15T13:45:02.153Z,96537.02
2019-05-15T13:47:29.241Z,96539.08
2019-05-15T13:49:58.476Z,96532.44
2019-05-15T13:52:31.720Z,96531.55
2019-05-15T13:55:25.304Z,96531.86
2019-05-15T13:57:55.109Z,96533.71
2019-05-15T14:01:03.007Z,96535.67
2019-05-15T14:03:30.094Z,96537.62
2019-05-15T14:05:58.308Z,96535.49
2019-05-15T14:11:11.692Z,96537.11
2019-05-15T14:13:39.268Z,96534.46
2019-05-15T14:16:19.286Z,96528.28
2019-05-15T14:18:53.063Z,96525.99
2019-05-15T14:21:20.126Z,96520.97
2019-05-15T14:23:58.887Z,96519.45
2019-05-15T14:26:32.018Z,96515.66
2019-05-15T14:28:59.171Z,96513.41
2019-05-15T14:31:27.914Z,96510.84
2019-05-15T14:34:05.591Z,96514.30
2019-05-15T14:36:32.721Z,96513.33
2019-05-15T14:38:59.827Z,96508.17
2019-05-15T14:41:29.250Z,96510.05
2019-05-15T14:44:17.402Z,96510.63
2019-05-15T14:46:45.068Z,96511.26
2019-05-15T14:49:12.201Z,96509.33
2019-05-15T14:51:39.338Z,96507.82
2019-05-15T14:54:08.937Z,96505.95
2019-05-15T14:56:41.603Z,96508.05
2019-05-15T14:59:09.297Z,96505.00
2019-05-15T15:01:48.743Z,96511.84
2019-05-15T15:04:28.996Z,96502.61
2019-05-15T15:07:05.634Z,96501.95
2019-05-15T15:09:32.746Z,96503.14
2019-05-15T15:11:59.842Z,96502.97
2019-05-15T15:14:28.485Z,96504.91
2019-05-15T15:17:04.353Z,96503.63
2019-05-15T15:19:33.370Z,96506.08
2019-05-15T15:22:00.890Z,96500.70
2019-05-15T15:24:28.027Z,96499.98
2019-05-15T15:26:55.091Z,96502.56
2019-05-15T15:29:22.217Z,96500.51
2019-05-15T15:31:58.942Z,96504.02
2019-05-15T15:34:38.729Z,96503.89
2019-05-15T15:37:15.735Z,96507.69
2019-05-15T15:39:42.894Z,96503.23
2019-05-15T15:42:18.165Z,96505.59
2019-05-15T15:44:45.290Z,96509.78
2019-05-15T15:47:12.449Z,96502.80
2019-05-15T15:49:39.716Z,96503.53
2019-05-15T15:52:08.765Z,96501.23
2019-05-15T15:54:45.942Z,96496.16
2019-05-15T15:57:13.174Z,96503.92
2019-05-15T15:59:40.267Z,96505.38
2019-05-15T16:02:08.897Z,96506.96
2019-05-15T16:04:48.308Z,96509.23
2019-05-15T16:07:25.255Z,96505.80
2019-05-15T16:10:00.203Z,96502.16
2019-05-15T16:12:27.833Z,96504.91
2019-05-15T16:15:03.248Z,96500.89
2019-05-15T16:17:30.369Z,96502.09
2019-05-15T16:19:57.479Z,96501.01
2019-05-15T16:22:24.637Z,96500.75
2019-05-15T16:24:52.154Z,96495.68
2019-05-15T16:27:19.283Z,96494.75
2019-05-15T16:29:46.429Z,96502.20
2019-05-15T16:32:13.531Z,96500.00
2019-05-15T16:34:40.642Z,96497.54
2019-05-15T16:37:08.938Z,96503.47
2019-05-15T16:39:42.813Z,96496.94
2019-05-15T16:42:09.914Z,96495.97
2019-05-15T16:44:38.442Z,96505.14
2019-05-15T16:47:15.805Z,96499.33
2019-05-15T16:49:42.925Z,96503.27
2019-05-15T16:52:10.013Z,96502.16
2019-05-15T16:54:38.302Z,96499.92
2019-05-15T16:57:12.191Z,96503.79
2019-05-15T16:59:39.295Z,96494.70
2019-05-15T17:02:08.710Z,96501.54
2019-05-15T17:04:45.948Z,96501.16
2019-05-15T17:07:21.214Z,96501.69
2019-05-15T17:09:48.363Z,96508.16
2019-05-15T17:12:15.653Z,96502.28
2019-05-15T17:14:42.782Z,96503.25
2019-05-15T17:17:09.953Z,96505.33
2019-05-15T17:19:37.255Z,96502.59
2019-05-15T17:22:04.526Z,96502.82
2019-05-15T17:24:31.629Z,96502.14
2019-05-15T17:26:59.742Z,96508.69
2019-05-15T17:29:29.194Z,96509.64
2019-05-15T17:31:56.043Z,96511.97
2019-05-15T17:34:23.191Z,96519.41
2019-05-15T17:36:50.302Z,96513.44
2019-05-15T17:39:20.128Z,96514.78
2019-05-15T17:41:48.232Z,96516.95
2019-05-15T17:44:15.577Z,96515.47
2019-05-15T17:46:43.328Z,96518.29
2019-05-15T17:49:15.293Z,96515.97
2019-05-15T17:51:39.584Z,96519.60
2019-05-15T17:54:08.812Z,96520.04
2019-05-15T17:56:35.862Z,96516.79
2019-05-15T17:59:02.969Z,96519.16
2019-05-15T18:01:30.045Z,96521.46
2019-05-15T18:03:59.461Z,96518.27
2019-05-15T18:06:28.907Z,96515.20
2019-05-15T18:08:55.430Z,96511.09
2019-05-15T18:11:22.614Z,96518.02
2019-05-15T18:13:49.733Z,96517.33
2019-05-15T18:16:18.236Z,96521.59
2019-05-15T18:18:47.787Z,96521.59
2019-05-15T18:21:14.777Z,96526.05
2019-05-15T18:23:41.881Z,96517.70
2019-05-15T18:26:09.183Z,96521.72
2019-05-15T18:28:38.792Z,96524.10
2019-05-15T18:31:05.318Z,96526.17
2019-05-15T18:33:32.442Z,96521.25
2019-05-15T18:35:59.582Z,96526.52
2019-05-15T18:38:28.129Z,96524.05
2019-05-15T18:40:55.608Z,96526.81
2019-05-15T18:43:22.682Z,96523.74
2019-05-15T18:45:49.774Z,96518.39
2019-05-15T18:48:18.409Z,96518.82
2019-05-15T18:50:45.679Z,96514.93
2019-05-15T18:53:12.728Z,96520.41
2019-05-15T18:55:39.821Z,96520.05
2019-05-15T18:58:08.761Z,96520.48
2019-05-15T19:00:36.209Z,96519.36
2019-05-15T19:03:18.323Z,96525.14
2019-05-15T19:05:32.492Z,96532.56
2019-05-15T19:07:59.606Z,96533.29
2019-05-15T19:10:28.206Z,96537.73
2019-05-15T19:12:57.902Z,96532.84
2019-05-15T19:15:24.523Z,96529.86
2019-05-15T19:17:51.590Z,96536.24
2019-05-15T19:20:19.064Z,96543.66
2019-05-15T19:22:48.244Z,96546.03
2019-05-15T19:25:17.974Z,96546.25
2019-05-15T19:27:45.171Z,96551.08
2019-05-15T19:30:14.182Z,96544.39
2019-05-15T19:32:41.324Z,96547.67
2019-05-15T19:35:08.643Z,96547.55
2019-05-15T19:37:38.310Z,96549.47
2019-05-15T19:40:11.561Z,96547.47
2019-05-15T19:42:39.162Z,96550.77
2019-05-15T19:45:08.607Z,96545.03
2019-05-15T19:47:38.404Z,96541.95
2019-05-15T19:50:05.306Z,96545.09
2019-05-15T19:52:32.392Z,96547.15
2019-05-15T19:54:59.800Z,96549.22
2019-05-15T19:57:28.047Z,96551.06
2019-05-15T19:59:57.959Z,96540.06
2019-05-15T20:02:24.272Z,96540.27
2019-05-15T20:04:51.394Z,96544.50
2019-05-15T20:07:18.720Z,96545.53
2019-05-15T20:09:47.680Z,96542.25
2019-05-15T20:12:14.823Z,96543.59
2019-05-15T20:14:42.188Z,96540.91
2019-05-15T20:17:09.362Z,96539.06
2019-05-15T20:19:38.274Z,96535.86
2019-05-15T20:22:05.384Z,96544.52
2019-05-15T20:24:32.474Z,96545.19
2019-05-15T20:26:59.600Z,96540.05
2019-05-15T20:29:28.829Z,96541.69
2019-05-15T20:31:55.944Z,96543.23
2019-05-15T20:34:24.788Z,96537.19
2019-05-15T20:36:51.890Z,96538.94
2019-05-15T20:39:18.968Z,96534.32
2019-05-15T20:41:46.059Z,96535.77
2019-05-15T20:44:13.140Z,96534.95
2019-05-15T20:46:40.257Z,96541.57
2019-05-15T20:49:08.567Z,96533.03
2019-05-15T20:51:38.463Z,96541.57
2019-05-15T20:54:04.944Z,96541.78
2019-05-15T20:56:32.049Z,96539.63
2019-05-15T20:58:59.107Z,96534.61
2019-05-15T21:01:28.582Z,96531.77
2019-05-15T21:03:55.203Z,96530.13
2019-05-15T21:06:22.277Z,96530.03
2019-05-15T21:08:49.578Z,96526.23
2019-05-15T21:11:18.010Z,96519.25
2019-05-15T21:13:45.639Z,96522.95
2019-05-15T21:16:12.718Z,96522.54
2019-05-15T21:18:41.509Z,96521.31
2019-05-15T21:21:10.537Z,96526.80
2019-05-15T21:23:38.629Z,96527.01
2019-05-15T21:26:07.847Z,96520.19
2019-05-15T21:28:34.906Z,96521.92
2019-05-15T21:31:02.008Z,96524.49
2019-05-15T21:33:29.305Z,96522.95
2019-05-15T21:35:58.308Z,96513.39
2019-05-15T21:38:25.475Z,96507.44
2019-05-15T21:40:52.561Z,96506.20
2019-05-15T21:43:19.632Z,96503.02
2019-05-15T21:45:48.783Z,96508.97
2019-05-15T21:48:18.241Z,96503.52
2019-05-15T21:50:44.690Z,96500.33
2019-05-15T21:53:12.081Z,96506.19
2019-05-15T21:55:39.219Z,96499.11
2019-05-15T21:58:08.178Z,96500.86
2019-05-15T22:00:38.666Z,96500.03
2019-05-15T22:03:06.230Z,96499.73
2019-05-15T22:05:33.312Z,96493.66
2019-05-15T22:08:00.416Z,96491.81
2019-05-15T22:10:28.780Z,96496.64
2019-05-15T22:12:58.703Z,96490.36
2019-05-15T22:15:25.600Z,96485.11
2019-05-15T22:17:52.739Z,96486.65
2019-05-15T22:20:19.950Z,96487.11
2019-05-15T22:22:50.423Z,96489.67
2019-05-15T22:25:18.762Z,96477.45
2019-05-15T22:27:45.597Z,96474.11
2019-05-15T22:30:13.576Z,96470.52
2019-05-15T22:32:41.656Z,96468.05
2019-05-15T22:35:13.750Z,96461.16
2019-05-15T22:37:41.415Z,96457.25
2019-05-15T22:40:15.256Z,96460.90
2019-05-15T22:42:42.352Z,96454.62
2019-05-15T22:45:11.702Z,96452.13
2019-05-15T22:47:39.174Z,96444.72
2019-05-15T22:50:08.348Z,96438.64
2019-05-15T22:52:35.485Z,96437.37
2019-05-15T22:55:02.657Z,96431.30
2019-05-15T22:57:29.728Z,96421.94
2019-05-15T22:59:58.146Z,96428.19
2019-05-15T23:02:25.431Z,96420.27
2019-05-15T23:04:52.503Z,96420.88
2019-05-15T23:07:19.580Z,96420.75
2019-05-15T23:09:48.841Z,96416.00
2019-05-15T23:12:15.617Z,96413.84
2019-05-15T23:14:42.679Z,96417.34
2019-05-15T23:17:10.571Z,96418.37
2019-05-15T23:19:38.597Z,96407.89
2019-05-15T23:22:08.186Z,96409.75
2019-05-15T23:24:34.721Z,96400.61
2019-05-15T23:27:01.792Z,96400.91
2019-05-15T23:29:28.893Z,96395.56
2019-05-15T23:31:58.252Z,96384.59
2019-05-15T23:34:24.933Z,96385.02
2019-05-15T23:36:52.010Z,96387.70
2019-05-15T23:39:19.103Z,96385.02
2019-05-15T23:41:46.165Z,96379.38
2019-05-15T23:44:13.269Z,96379.23
2019-05-15T23:46:40.360Z,96372.54
2019-05-15T23:49:08.282Z,96373.19
2019-05-15T23:51:35.537Z,96373.39
2019-05-15T23:54:02.648Z,96373.82
2019-05-15T23:56:29.710Z,96367.26
2019-05-15T23:58:56.755Z,96367.77
